sensor_id;sensor_type;location;lat;lon;timestamp;P1;durP1;ratioP1;P2;durP2;ratioP2
56083;SDS011;41958;52.416;13.428;2022-11-20T00:00:37;19.88;;;9.10;;
56083;SDS011;41958;52.416;13.428;2022-11-20T00:03:02;18.77;;;8.75;;
56083;SDS011;41958;52.416;13.428;2022-11-20T00:05:27;18.30;;;8.95;;
56083;SDS011;41958;52.416;13.428;2022-11-20T00:07:52;18.02;;;8.93;;
56083;SDS011;41958;52.416;13.428;2022-11-20T00:10:18;19.10;;;9.35;;
56083;SDS011;41958;52.416;13.428;2022-11-20T00:12:43;17.67;;;9.35;;
56083;SDS011;41958;52.416;13.428;2022-11-20T00:15:08;21.10;;;9.35;;
56083;SDS011;41958;52.416;13.428;2022-11-20T00:17:34;17.67;;;8.82;;
56083;SDS011;41958;52.416;13.428;2022-11-20T00:20:00;19.83;;;8.70;;
56083;SDS011;41958;52.416;13.428;2022-11-20T00:22:25;23.95;;;9.85;;
56083;SDS011;41958;52.416;13.428;2022-11-20T00:24:50;19.90;;;9.35;;
56083;SDS011;41958;52.416;13.428;2022-11-20T00:27:15;16.90;;;8.63;;
56083;SDS011;41958;52.416;13.428;2022-11-20T00:29:41;19.38;;;9.60;;
56083;SDS011;41958;52.416;13.428;2022-11-20T00:32:06;21.65;;;9.43;;
56083;SDS011;41958;52.416;13.428;2022-11-20T00:34:31;16.90;;;9.38;;
56083;SDS011;41958;52.416;13.428;2022-11-20T00:36:56;17.58;;;8.80;;
56083;SDS011;41958;52.416;13.428;2022-11-20T00:39:22;16.25;;;9.20;;
56083;SDS011;41958;52.416;13.428;2022-11-20T00:41:47;22.40;;;9.52;;
56083;SDS011;41958;52.416;13.428;2022-11-20T00:44:12;20.95;;;9.77;;
56083;SDS011;41958;52.416;13.428;2022-11-20T00:46:37;19.95;;;9.88;;
56083;SDS011;41958;52.416;13.428;2022-11-20T00:49:03;20.23;;;9.18;;
56083;SDS011;41958;52.416;13.428;2022-11-20T00:51:28;17.20;;;8.30;;
56083;SDS011;41958;52.416;13.428;2022-11-20T00:53:57;19.02;;;9.27;;
56083;SDS011;41958;52.416;13.428;2022-11-20T00:56:24;18.90;;;9.60;;
56083;SDS011;41958;52.416;13.428;2022-11-20T00:58:50;17.77;;;9.10;;
56083;SDS011;41958;52.416;13.428;2022-11-20T01:01:17;17.08;;;8.73;;
56083;SDS011;41958;52.416;13.428;2022-11-20T01:03:45;19.38;;;8.95;;
56083;SDS011;41958;52.416;13.428;2022-11-20T01:08:48;18.52;;;8.95;;
56083;SDS011;41958;52.416;13.428;2022-11-20T01:11:16;19.63;;;9.38;;
56083;SDS011;41958;52.416;13.428;2022-11-20T01:13:44;18.08;;;9.07;;
56083;SDS011;41958;52.416;13.428;2022-11-20T01:16:11;16.13;;;9.35;;
56083;SDS011;41958;52.416;13.428;2022-11-20T01:18:48;18.80;;;9.02;;
56083;SDS011;41958;52.416;13.428;2022-11-20T01:21:16;16.48;;;9.02;;
56083;SDS011;41958;52.416;13.428;2022-11-20T01:23:43;18.23;;;8.45;;
56083;SDS011;41958;52.416;13.428;2022-11-20T01:26:10;19.90;;;9.60;;
56083;SDS011;41958;52.416;13.428;2022-11-20T01:28:37;16.85;;;9.48;;
56083;SDS011;41958;52.416;13.428;2022-11-20T01:33:40;18.73;;;8.80;;
56083;SDS011;41958;52.416;13.428;2022-11-20T01:36:06;16.60;;;8.20;;
56083;SDS011;41958;52.416;13.428;2022-11-20T01:38:33;18.17;;;9.75;;
56083;SDS011;41958;52.416;13.428;2022-11-20T01:40:58;18.80;;;9.23;;
56083;SDS011;41958;52.416;13.428;2022-11-20T01:43:23;21.13;;;10.50;;
56083;SDS011;41958;52.416;13.428;2022-11-20T01:45:57;17.35;;;9.20;;
56083;SDS011;41958;52.416;13.428;2022-11-20T01:48:23;20.33;;;9.20;;
56083;SDS011;41958;52.416;13.428;2022-11-20T01:50:53;16.73;;;8.25;;
56083;SDS011;41958;52.416;13.428;2022-11-20T01:53:20;18.88;;;9.40;;
56083;SDS011;41958;52.416;13.428;2022-11-20T01:55:51;16.85;;;9.52;;
56083;SDS011;41958;52.416;13.428;2022-11-20T01:58:22;17.70;;;9.40;;
56083;SDS011;41958;52.416;13.428;2022-11-20T02:00:52;17.88;;;9.30;;
56083;SDS011;41958;52.416;13.428;2022-11-20T02:03:18;17.15;;;9.85;;
56083;SDS011;41958;52.416;13.428;2022-11-20T02:05:46;19.75;;;8.80;;
56083;SDS011;41958;52.416;13.428;2022-11-20T02:08:16;18.42;;;9.32;;
56083;SDS011;41958;52.416;13.428;2022-11-20T02:10:42;20.05;;;9.68;;
56083;SDS011;41958;52.416;13.428;2022-11-20T02:13:08;19.05;;;9.32;;
56083;SDS011;41958;52.416;13.428;2022-11-20T02:15:52;15.48;;;8.10;;
56083;SDS011;41958;52.416;13.428;2022-11-20T02:18:18;17.98;;;9.35;;
56083;SDS011;41958;52.416;13.428;2022-11-20T02:20:45;18.13;;;8.80;;
56083;SDS011;41958;52.416;13.428;2022-11-20T02:23:12;18.77;;;9.32;;
56083;SDS011;41958;52.416;13.428;2022-11-20T02:25:45;18.20;;;9.67;;
56083;SDS011;41958;52.416;13.428;2022-11-20T02:28:12;20.75;;;10.00;;
56083;SDS011;41958;52.416;13.428;2022-11-20T02:30:37;19.92;;;8.88;;
56083;SDS011;41958;52.416;13.428;2022-11-20T02:33:02;21.02;;;9.00;;
56083;SDS011;41958;52.416;13.428;2022-11-20T02:37:54;18.45;;;9.13;;
56083;SDS011;41958;52.416;13.428;2022-11-20T02:40:20;19.05;;;9.50;;
56083;SDS011;41958;52.416;13.428;2022-11-20T02:42:46;19.13;;;8.85;;
56083;SDS011;41958;52.416;13.428;2022-11-20T02:45:12;18.63;;;9.55;;
56083;SDS011;41958;52.416;13.428;2022-11-20T02:47:37;17.02;;;8.82;;
56083;SDS011;41958;52.416;13.428;2022-11-20T02:50:03;16.65;;;9.07;;
56083;SDS011;41958;52.416;13.428;2022-11-20T02:52:29;18.08;;;9.38;;
56083;SDS011;41958;52.416;13.428;2022-11-20T02:54:54;15.93;;;8.75;;
56083;SDS011;41958;52.416;13.428;2022-11-20T02:57:20;17.65;;;8.80;;
56083;SDS011;41958;52.416;13.428;2022-11-20T02:59:45;17.60;;;9.23;;
56083;SDS011;41958;52.416;13.428;2022-11-20T03:02:10;17.67;;;9.18;;
56083;SDS011;41958;52.416;13.428;2022-11-20T03:04:35;19.00;;;9.05;;
56083;SDS011;41958;52.416;13.428;2022-11-20T03:07:01;21.33;;;9.73;;
56083;SDS011;41958;52.416;13.428;2022-11-20T03:09:26;19.63;;;9.23;;
56083;SDS011;41958;52.416;13.428;2022-11-20T03:11:51;19.90;;;9.63;;
56083;SDS011;41958;52.416;13.428;2022-11-20T03:14:17;19.02;;;9.15;;
56083;SDS011;41958;52.416;13.428;2022-11-20T03:16:42;16.88;;;9.48;;
56083;SDS011;41958;52.416;13.428;2022-11-20T03:19:07;17.23;;;8.70;;
56083;SDS011;41958;52.416;13.428;2022-11-20T03:21:33;19.67;;;8.98;;
56083;SDS011;41958;52.416;13.428;2022-11-20T03:23:59;20.25;;;9.38;;
56083;SDS011;41958;52.416;13.428;2022-11-20T03:26:25;20.90;;;9.52;;
56083;SDS011;41958;52.416;13.428;2022-11-20T03:28:53;20.92;;;9.30;;
56083;SDS011;41958;52.416;13.428;2022-11-20T03:31:26;18.05;;;9.25;;
56083;SDS011;41958;52.416;13.428;2022-11-20T03:33:54;18.95;;;10.13;;
56083;SDS011;41958;52.416;13.428;2022-11-20T03:36:20;17.25;;;9.07;;
56083;SDS011;41958;52.416;13.428;2022-11-20T03:38:45;18.38;;;9.07;;
56083;SDS011;41958;52.416;13.428;2022-11-20T03:41:13;19.30;;;9.40;;
56083;SDS011;41958;52.416;13.428;2022-11-20T03:43:47;25.65;;;9.77;;
56083;SDS011;41958;52.416;13.428;2022-11-20T03:46:16;16.20;;;9.47;;
56083;SDS011;41958;52.416;13.428;2022-11-20T03:48:41;18.80;;;9.45;;
56083;SDS011;41958;52.416;13.428;2022-11-20T03:51:07;19.13;;;8.93;;
56083;SDS011;41958;52.416;13.428;2022-11-20T03:53:35;22.33;;;9.63;;
56083;SDS011;41958;52.416;13.428;2022-11-20T03:56:01;20.58;;;9.30;;
56083;SDS011;41958;52.416;13.428;2022-11-20T03:58:26;20.65;;;10.43;;
56083;SDS011;41958;52.416;13.428;2022-11-20T04:00:51;19.20;;;9.38;;
56083;SDS011;41958;52.416;13.428;2022-11-20T04:03:16;21.83;;;9.82;;
56083;SDS011;41958;52.416;13.428;2022-11-20T04:05:42;19.20;;;10.18;;
56083;SDS011;41958;52.416;13.428;2022-11-20T04:08:07;19.48;;;9.30;;
56083;SDS011;41958;52.416;13.428;2022-11-20T04:10:32;21.77;;;10.30;;
56083;SDS011;41958;52.416;13.428;2022-11-20T04:12:58;19.02;;;10.02;;
56083;SDS011;41958;52.416;13.428;2022-11-20T04:15:23;18.25;;;9.00;;
56083;SDS011;41958;52.416;13.428;2022-11-20T04:17:48;20.15;;;9.32;;
56083;SDS011;41958;52.416;13.428;2022-11-20T04:20:14;20.02;;;9.38;;
56083;SDS011;41958;52.416;13.428;2022-11-20T04:22:39;20.38;;;10.40;;
56083;SDS011;41958;52.416;13.428;2022-11-20T04:25:04;21.50;;;9.77;;
56083;SDS011;41958;52.416;13.428;2022-11-20T04:27:30;17.27;;;8.90;;
56083;SDS011;41958;52.416;13.428;2022-11-20T04:29:55;21.17;;;10.05;;
56083;SDS011;41958;52.416;13.428;2022-11-20T04:32:21;19.38;;;9.45;;
56083;SDS011;41958;52.416;13.428;2022-11-20T04:34:46;19.17;;;10.38;;
56083;SDS011;41958;52.416;13.428;2022-11-20T04:37:11;18.88;;;9.30;;
56083;SDS011;41958;52.416;13.428;2022-11-20T04:39:36;16.80;;;9.13;;
56083;SDS011;41958;52.416;13.428;2022-11-20T04:42:02;17.58;;;9.85;;
56083;SDS011;41958;52.416;13.428;2022-11-20T04:47:11;19.23;;;9.07;;
56083;SDS011;41958;52.416;13.428;2022-11-20T04:49:36;17.65;;;9.35;;
56083;SDS011;41958;52.416;13.428;2022-11-20T04:52:01;18.65;;;8.98;;
56083;SDS011;41958;52.416;13.428;2022-11-20T04:54:27;18.63;;;9.40;;
56083;SDS011;41958;52.416;13.428;2022-11-20T04:56:52;20.48;;;9.93;;
56083;SDS011;41958;52.416;13.428;2022-11-20T04:59:17;21.83;;;9.85;;
56083;SDS011;41958;52.416;13.428;2022-11-20T05:01:43;19.30;;;9.10;;
56083;SDS011;41958;52.416;13.428;2022-11-20T05:04:08;18.95;;;10.32;;
56083;SDS011;41958;52.416;13.428;2022-11-20T05:06:34;19.75;;;9.93;;
56083;SDS011;41958;52.416;13.428;2022-11-20T05:08:59;22.40;;;10.23;;
56083;SDS011;41958;52.416;13.428;2022-11-20T05:11:25;19.38;;;10.18;;
56083;SDS011;41958;52.416;13.428;2022-11-20T05:13:53;24.38;;;10.80;;
56083;SDS011;41958;52.416;13.428;2022-11-20T05:16:20;19.17;;;10.68;;
56083;SDS011;41958;52.416;13.428;2022-11-20T05:18:47;20.05;;;10.00;;
56083;SDS011;41958;52.416;13.428;2022-11-20T05:21:12;19.83;;;9.77;;
56083;SDS011;41958;52.416;13.428;2022-11-20T05:23:38;19.30;;;10.68;;
56083;SDS011;41958;52.416;13.428;2022-11-20T05:26:05;20.98;;;11.40;;
56083;SDS011;41958;52.416;13.428;2022-11-20T05:28:32;21.80;;;10.98;;
56083;SDS011;41958;52.416;13.428;2022-11-20T05:31:08;22.58;;;10.20;;
56083;SDS011;41958;52.416;13.428;2022-11-20T05:33:35;22.20;;;10.85;;
56083;SDS011;41958;52.416;13.428;2022-11-20T05:36:01;22.75;;;10.30;;
56083;SDS011;41958;52.416;13.428;2022-11-20T05:38:28;18.30;;;9.38;;
56083;SDS011;41958;52.416;13.428;2022-11-20T05:40:53;20.10;;;10.00;;
56083;SDS011;41958;52.416;13.428;2022-11-20T05:43:18;21.23;;;9.57;;
56083;SDS011;41958;52.416;13.428;2022-11-20T05:45:51;18.90;;;9.10;;
56083;SDS011;41958;52.416;13.428;2022-11-20T05:48:19;23.38;;;9.80;;
56083;SDS011;41958;52.416;13.428;2022-11-20T05:50:44;19.55;;;9.95;;
56083;SDS011;41958;52.416;13.428;2022-11-20T05:53:09;23.27;;;11.15;;
56083;SDS011;41958;52.416;13.428;2022-11-20T05:55:35;21.02;;;10.95;;
56083;SDS011;41958;52.416;13.428;2022-11-20T05:58:00;20.75;;;10.10;;
56083;SDS011;41958;52.416;13.428;2022-11-20T06:00:25;22.15;;;10.75;;
56083;SDS011;41958;52.416;13.428;2022-11-20T06:02:50;19.02;;;9.40;;
56083;SDS011;41958;52.416;13.428;2022-11-20T06:05:15;20.50;;;9.82;;
56083;SDS011;41958;52.416;13.428;2022-11-20T06:07:41;20.38;;;10.25;;
56083;SDS011;41958;52.416;13.428;2022-11-20T06:10:06;18.50;;;9.48;;
56083;SDS011;41958;52.416;13.428;2022-11-20T06:12:32;21.60;;;10.85;;
56083;SDS011;41958;52.416;13.428;2022-11-20T06:14:57;17.38;;;9.55;;
56083;SDS011;41958;52.416;13.428;2022-11-20T06:17:23;19.60;;;9.88;;
56083;SDS011;41958;52.416;13.428;2022-11-20T06:19:48;17.85;;;9.45;;
56083;SDS011;41958;52.416;13.428;2022-11-20T06:22:13;20.10;;;9.85;;
56083;SDS011;41958;52.416;13.428;2022-11-20T06:24:39;17.20;;;9.77;;
56083;SDS011;41958;52.416;13.428;2022-11-20T06:27:04;22.35;;;10.38;;
56083;SDS011;41958;52.416;13.428;2022-11-20T06:29:29;19.33;;;9.57;;
56083;SDS011;41958;52.416;13.428;2022-11-20T06:31:54;21.73;;;9.85;;
56083;SDS011;41958;52.416;13.428;2022-11-20T06:34:20;20.85;;;10.40;;
56083;SDS011;41958;52.416;13.428;2022-11-20T06:36:45;21.42;;;10.02;;
56083;SDS011;41958;52.416;13.428;2022-11-20T06:39:11;20.30;;;10.25;;
56083;SDS011;41958;52.416;13.428;2022-11-20T06:41:36;18.75;;;9.75;;
56083;SDS011;41958;52.416;13.428;2022-11-20T06:44:03;20.40;;;10.38;;
56083;SDS011;41958;52.416;13.428;2022-11-20T06:46:30;19.50;;;9.85;;
56083;SDS011;41958;52.416;13.428;2022-11-20T06:48:55;20.45;;;10.15;;
56083;SDS011;41958;52.416;13.428;2022-11-20T06:51:20;19.00;;;9.57;;
56083;SDS011;41958;52.416;13.428;2022-11-20T06:53:46;18.58;;;9.20;;
56083;SDS011;41958;52.416;13.428;2022-11-20T06:56:11;24.48;;;11.15;;
56083;SDS011;41958;52.416;13.428;2022-11-20T06:58:37;19.65;;;10.18;;
56083;SDS011;41958;52.416;13.428;2022-11-20T07:01:03;20.77;;;10.27;;
56083;SDS011;41958;52.416;13.428;2022-11-20T07:03:30;21.30;;;10.52;;
56083;SDS011;41958;52.416;13.428;2022-11-20T07:05:56;21.98;;;10.45;;
56083;SDS011;41958;52.416;13.428;2022-11-20T07:08:23;19.58;;;9.27;;
56083;SDS011;41958;52.416;13.428;2022-11-20T07:10:48;19.13;;;9.60;;
56083;SDS011;41958;52.416;13.428;2022-11-20T07:13:13;21.70;;;10.30;;
56083;SDS011;41958;52.416;13.428;2022-11-20T07:15:39;24.08;;;11.70;;
56083;SDS011;41958;52.416;13.428;2022-11-20T07:18:04;19.75;;;10.30;;
56083;SDS011;41958;52.416;13.428;2022-11-20T07:20:29;21.42;;;10.75;;
56083;SDS011;41958;52.416;13.428;2022-11-20T07:22:55;21.77;;;10.48;;
56083;SDS011;41958;52.416;13.428;2022-11-20T07:25:21;24.55;;;10.73;;
56083;SDS011;41958;52.416;13.428;2022-11-20T07:27:47;18.35;;;9.23;;
56083;SDS011;41958;52.416;13.428;2022-11-20T07:30:12;19.25;;;10.23;;
56083;SDS011;41958;52.416;13.428;2022-11-20T07:32:38;22.83;;;10.88;;
56083;SDS011;41958;52.416;13.428;2022-11-20T07:35:04;20.83;;;10.13;;
56083;SDS011;41958;52.416;13.428;2022-11-20T07:37:29;20.63;;;10.63;;
56083;SDS011;41958;52.416;13.428;2022-11-20T07:39:55;20.88;;;11.10;;
56083;SDS011;41958;52.416;13.428;2022-11-20T07:42:20;22.08;;;10.38;;
56083;SDS011;41958;52.416;13.428;2022-11-20T07:44:45;22.90;;;10.73;;
56083;SDS011;41958;52.416;13.428;2022-11-20T07:47:10;21.10;;;10.25;;
56083;SDS011;41958;52.416;13.428;2022-11-20T07:49:36;24.73;;;10.70;;
56083;SDS011;41958;52.416;13.428;2022-11-20T07:52:01;21.90;;;10.60;;
56083;SDS011;41958;52.416;13.428;2022-11-20T07:54:26;19.75;;;10.23;;
56083;SDS011;41958;52.416;13.428;2022-11-20T07:56:51;23.60;;;10.48;;
56083;SDS011;41958;52.416;13.428;2022-11-20T07:59:16;26.08;;;11.43;;
56083;SDS011;41958;52.416;13.428;2022-11-20T08:01:42;25.40;;;11.30;;
56083;SDS011;41958;52.416;13.428;2022-11-20T08:04:08;22.05;;;11.55;;
56083;SDS011;41958;52.416;13.428;2022-11-20T08:06:34;24.75;;;11.48;;
56083;SDS011;41958;52.416;13.428;2022-11-20T08:08:59;24.70;;;11.57;;
56083;SDS011;41958;52.416;13.428;2022-11-20T08:11:25;24.10;;;11.27;;
56083;SDS011;41958;52.416;13.428;2022-11-20T08:14:09;20.95;;;11.82;;
56083;SDS011;41958;52.416;13.428;2022-11-20T08:16:37;25.48;;;11.30;;
56083;SDS011;41958;52.416;13.428;2022-11-20T08:19:09;25.60;;;10.68;;
56083;SDS011;41958;52.416;13.428;2022-11-20T08:21:35;24.33;;;11.35;;
56083;SDS011;41958;52.416;13.428;2022-11-20T08:24:00;22.08;;;10.85;;
56083;SDS011;41958;52.416;13.428;2022-11-20T08:26:25;27.73;;;11.63;;
56083;SDS011;41958;52.416;13.428;2022-11-20T08:28:57;25.65;;;12.38;;
56083;SDS011;41958;52.416;13.428;2022-11-20T08:31:23;25.45;;;11.68;;
56083;SDS011;41958;52.416;13.428;2022-11-20T08:33:50;22.23;;;11.35;;
56083;SDS011;41958;52.416;13.428;2022-11-20T08:36:16;22.23;;;11.10;;
56083;SDS011;41958;52.416;13.428;2022-11-20T08:38:41;27.48;;;12.13;;
56083;SDS011;41958;52.416;13.428;2022-11-20T08:41:07;23.23;;;11.75;;
56083;SDS011;41958;52.416;13.428;2022-11-20T08:43:54;22.05;;;11.20;;
56083;SDS011;41958;52.416;13.428;2022-11-20T08:46:28;21.17;;;11.10;;
56083;SDS011;41958;52.416;13.428;2022-11-20T08:48:58;21.35;;;11.23;;
56083;SDS011;41958;52.416;13.428;2022-11-20T08:51:24;21.38;;;10.88;;
56083;SDS011;41958;52.416;13.428;2022-11-20T08:53:49;21.30;;;10.30;;
56083;SDS011;41958;52.416;13.428;2022-11-20T08:56:14;21.13;;;10.50;;
56083;SDS011;41958;52.416;13.428;2022-11-20T08:58:40;20.45;;;10.18;;
56083;SDS011;41958;52.416;13.428;2022-11-20T09:01:06;20.63;;;10.35;;
56083;SDS011;41958;52.416;13.428;2022-11-20T09:03:31;26.42;;;11.80;;
56083;SDS011;41958;52.416;13.428;2022-11-20T09:06:00;22.20;;;10.75;;
56083;SDS011;41958;52.416;13.428;2022-11-20T09:08:26;24.35;;;10.95;;
56083;SDS011;41958;52.416;13.428;2022-11-20T09:10:53;21.42;;;10.65;;
56083;SDS011;41958;52.416;13.428;2022-11-20T09:13:19;21.58;;;9.88;;
56083;SDS011;41958;52.416;13.428;2022-11-20T09:15:46;23.27;;;10.48;;
56083;SDS011;41958;52.416;13.428;2022-11-20T09:18:11;22.13;;;11.50;;
56083;SDS011;41958;52.416;13.428;2022-11-20T09:20:36;20.33;;;10.63;;
56083;SDS011;41958;52.416;13.428;2022-11-20T09:23:01;21.92;;;11.15;;
56083;SDS011;41958;52.416;13.428;2022-11-20T09:25:27;22.08;;;11.30;;
56083;SDS011;41958;52.416;13.428;2022-11-20T09:27:58;19.80;;;11.70;;
56083;SDS011;41958;52.416;13.428;2022-11-20T09:30:24;24.25;;;12.13;;
56083;SDS011;41958;52.416;13.428;2022-11-20T09:32:51;23.23;;;10.77;;
56083;SDS011;41958;52.416;13.428;2022-11-20T09:35:16;20.77;;;11.55;;
56083;SDS011;41958;52.416;13.428;2022-11-20T09:37:42;43.22;;;11.43;;
56083;SDS011;41958;52.416;13.428;2022-11-20T09:40:13;19.00;;;10.27;;
56083;SDS011;41958;52.416;13.428;2022-11-20T09:42:45;21.70;;;11.57;;
56083;SDS011;41958;52.416;13.428;2022-11-20T09:45:16;24.45;;;11.85;;
56083;SDS011;41958;52.416;13.428;2022-11-20T09:55:37;19.15;;;10.73;;
56083;SDS011;41958;52.416;13.428;2022-11-20T09:58:05;23.77;;;11.18;;
56083;SDS011;41958;52.416;13.428;2022-11-20T10:00:32;21.08;;;11.20;;
56083;SDS011;41958;52.416;13.428;2022-11-20T10:05:37;21.20;;;11.10;;
56083;SDS011;41958;52.416;13.428;2022-11-20T10:10:47;21.17;;;11.23;;
56083;SDS011;41958;52.416;13.428;2022-11-20T10:13:37;23.67;;;11.43;;
56083;SDS011;41958;52.416;13.428;2022-11-20T10:16:26;25.10;;;11.88;;
56083;SDS011;41958;52.416;13.428;2022-11-20T10:19:13;22.20;;;10.77;;
56083;SDS011;41958;52.416;13.428;2022-11-20T10:21:53;21.95;;;11.70;;
56083;SDS011;41958;52.416;13.428;2022-11-20T10:30:14;20.80;;;11.63;;
56083;SDS011;41958;52.416;13.428;2022-11-20T10:32:42;21.33;;;11.32;;
56083;SDS011;41958;52.416;13.428;2022-11-20T10:37:39;25.75;;;12.50;;
56083;SDS011;41958;52.416;13.428;2022-11-20T10:42:42;19.67;;;10.27;;
56083;SDS011;41958;52.416;13.428;2022-11-20T10:45:32;23.13;;;11.88;;
56083;SDS011;41958;52.416;13.428;2022-11-20T10:53:40;21.85;;;11.02;;
56083;SDS011;41958;52.416;13.428;2022-11-20T10:58:45;22.92;;;11.70;;
56083;SDS011;41958;52.416;13.428;2022-11-20T11:01:18;20.85;;;11.13;;
56083;SDS011;41958;52.416;13.428;2022-11-20T11:03:48;22.17;;;10.70;;
56083;SDS011;41958;52.416;13.428;2022-11-20T11:08:58;19.30;;;10.70;;
56083;SDS011;41958;52.416;13.428;2022-11-20T11:11:33;20.65;;;10.85;;
56083;SDS011;41958;52.416;13.428;2022-11-20T11:14:12;22.25;;;11.13;;
56083;SDS011;41958;52.416;13.428;2022-11-20T11:16:51;21.98;;;11.32;;
56083;SDS011;41958;52.416;13.428;2022-11-20T11:19:18;22.92;;;11.48;;
56083;SDS011;41958;52.416;13.428;2022-11-20T11:21:48;22.15;;;10.63;;
56083;SDS011;41958;52.416;13.428;2022-11-20T11:24:23;20.65;;;11.18;;
56083;SDS011;41958;52.416;13.428;2022-11-20T11:26:51;19.27;;;10.60;;
56083;SDS011;41958;52.416;13.428;2022-11-20T11:29:18;20.23;;;10.32;;
56083;SDS011;41958;52.416;13.428;2022-11-20T11:31:43;21.27;;;10.77;;
56083;SDS011;41958;52.416;13.428;2022-11-20T11:34:13;19.67;;;10.25;;
56083;SDS011;41958;52.416;13.428;2022-11-20T11:36:40;22.85;;;10.82;;
56083;SDS011;41958;52.416;13.428;2022-11-20T11:39:10;21.85;;;11.35;;
56083;SDS011;41958;52.416;13.428;2022-11-20T11:41:40;21.80;;;11.20;;
56083;SDS011;41958;52.416;13.428;2022-11-20T11:44:15;21.27;;;10.80;;
56083;SDS011;41958;52.416;13.428;2022-11-20T11:47:02;23.17;;;11.05;;
56083;SDS011;41958;52.416;13.428;2022-11-20T11:49:30;23.25;;;10.77;;
56083;SDS011;41958;52.416;13.428;2022-11-20T11:51:58;18.25;;;10.23;;
56083;SDS011;41958;52.416;13.428;2022-11-20T11:54:47;17.73;;;9.50;;
56083;SDS011;41958;52.416;13.428;2022-11-20T11:57:38;21.42;;;10.10;;
56083;SDS011;41958;52.416;13.428;2022-11-20T12:05:15;19.17;;;10.25;;
56083;SDS011;41958;52.416;13.428;2022-11-20T12:07:42;23.10;;;10.82;;
56083;SDS011;41958;52.416;13.428;2022-11-20T12:10:15;19.20;;;10.10;;
56083;SDS011;41958;52.416;13.428;2022-11-20T12:12:58;24.75;;;10.90;;
56083;SDS011;41958;52.416;13.428;2022-11-20T12:15:30;16.30;;;8.98;;
56083;SDS011;41958;52.416;13.428;2022-11-20T12:17:58;17.55;;;9.60;;
56083;SDS011;41958;52.416;13.428;2022-11-20T12:20:27;20.27;;;10.40;;
56083;SDS011;41958;52.416;13.428;2022-11-20T12:23:02;22.67;;;10.38;;
56083;SDS011;41958;52.416;13.428;2022-11-20T12:25:39;18.80;;;8.93;;
56083;SDS011;41958;52.416;13.428;2022-11-20T12:28:23;18.65;;;9.40;;
56083;SDS011;41958;52.416;13.428;2022-11-20T12:34:07;17.17;;;9.23;;
56083;SDS011;41958;52.416;13.428;2022-11-20T12:36:45;18.33;;;9.15;;
56083;SDS011;41958;52.416;13.428;2022-11-20T12:42:05;15.23;;;7.97;;
56083;SDS011;41958;52.416;13.428;2022-11-20T12:48:01;15.25;;;6.97;;
56083;SDS011;41958;52.416;13.428;2022-11-20T12:50:37;14.13;;;7.20;;
56083;SDS011;41958;52.416;13.428;2022-11-20T12:53:40;14.52;;;7.47;;
56083;SDS011;41958;52.416;13.428;2022-11-20T12:56:25;13.07;;;6.53;;
56083;SDS011;41958;52.416;13.428;2022-11-20T12:59:11;15.55;;;7.05;;
56083;SDS011;41958;52.416;13.428;2022-11-20T13:02:40;11.35;;;6.05;;
56083;SDS011;41958;52.416;13.428;2022-11-20T13:05:11;12.30;;;6.15;;
56083;SDS011;41958;52.416;13.428;2022-11-20T13:07:38;11.38;;;5.68;;
56083;SDS011;41958;52.416;13.428;2022-11-20T13:10:05;12.82;;;6.43;;
56083;SDS011;41958;52.416;13.428;2022-11-20T13:12:44;9.57;;;5.30;;
56083;SDS011;41958;52.416;13.428;2022-11-20T13:15:18;9.07;;;4.78;;
56083;SDS011;41958;52.416;13.428;2022-11-20T13:18:01;11.35;;;5.80;;
56083;SDS011;41958;52.416;13.428;2022-11-20T13:20:29;10.10;;;5.15;;
56083;SDS011;41958;52.416;13.428;2022-11-20T13:22:55;11.20;;;5.50;;
56083;SDS011;41958;52.416;13.428;2022-11-20T13:25:28;11.23;;;5.45;;
56083;SDS011;41958;52.416;13.428;2022-11-20T13:28:00;9.38;;;4.95;;
56083;SDS011;41958;52.416;13.428;2022-11-20T13:30:49;11.45;;;5.50;;
56083;SDS011;41958;52.416;13.428;2022-11-20T13:33:23;13.82;;;6.75;;
56083;SDS011;41958;52.416;13.428;2022-11-20T13:36:04;10.18;;;5.40;;
56083;SDS011;41958;52.416;13.428;2022-11-20T13:38:44;10.30;;;6.05;;
56083;SDS011;41958;52.416;13.428;2022-11-20T13:41:22;14.57;;;5.75;;
56083;SDS011;41958;52.416;13.428;2022-11-20T13:44:13;11.30;;;6.10;;
56083;SDS011;41958;52.416;13.428;2022-11-20T13:46:48;9.93;;;5.63;;
56083;SDS011;41958;52.416;13.428;2022-11-20T13:49:25;13.15;;;6.20;;
56083;SDS011;41958;52.416;13.428;2022-11-20T13:51:57;12.27;;;6.50;;
56083;SDS011;41958;52.416;13.428;2022-11-20T13:57:43;13.50;;;6.70;;
56083;SDS011;41958;52.416;13.428;2022-11-20T14:00:21;13.70;;;7.30;;
56083;SDS011;41958;52.416;13.428;2022-11-20T14:05:40;14.30;;;7.28;;
56083;SDS011;41958;52.416;13.428;2022-11-20T14:08:23;14.27;;;7.15;;
56083;SDS011;41958;52.416;13.428;2022-11-20T14:11:04;16.05;;;7.68;;
56083;SDS011;41958;52.416;13.428;2022-11-20T14:13:52;13.35;;;7.18;;
56083;SDS011;41958;52.416;13.428;2022-11-20T14:16:20;16.25;;;7.57;;
56083;SDS011;41958;52.416;13.428;2022-11-20T14:18:46;13.80;;;6.93;;
56083;SDS011;41958;52.416;13.428;2022-11-20T14:21:11;14.75;;;6.90;;
56083;SDS011;41958;52.416;13.428;2022-11-20T14:23:46;15.68;;;7.18;;
56083;SDS011;41958;52.416;13.428;2022-11-20T14:26:12;12.98;;;7.20;;
56083;SDS011;41958;52.416;13.428;2022-11-20T14:28:43;10.68;;;5.93;;
56083;SDS011;41958;52.416;13.428;2022-11-20T14:31:16;10.63;;;5.97;;
56083;SDS011;41958;52.416;13.428;2022-11-20T14:36:20;12.98;;;6.07;;
56083;SDS011;41958;52.416;13.428;2022-11-20T14:38:48;13.85;;;6.43;;
56083;SDS011;41958;52.416;13.428;2022-11-20T14:41:21;13.10;;;7.38;;
56083;SDS011;41958;52.416;13.428;2022-11-20T14:43:53;17.23;;;7.10;;
56083;SDS011;41958;52.416;13.428;2022-11-20T14:46:21;12.40;;;7.00;;
56083;SDS011;41958;52.416;13.428;2022-11-20T14:48:49;15.98;;;7.57;;
56083;SDS011;41958;52.416;13.428;2022-11-20T14:51:30;13.18;;;7.15;;
56083;SDS011;41958;52.416;13.428;2022-11-20T14:54:13;13.52;;;7.22;;
56083;SDS011;41958;52.416;13.428;2022-11-20T14:56:56;12.98;;;7.40;;
56083;SDS011;41958;52.416;13.428;2022-11-20T14:59:23;13.10;;;6.90;;
56083;SDS011;41958;52.416;13.428;2022-11-20T15:01:57;15.68;;;7.53;;
56083;SDS011;41958;52.416;13.428;2022-11-20T15:04:27;15.98;;;7.70;;
56083;SDS011;41958;52.416;13.428;2022-11-20T15:06:54;13.85;;;7.72;;
56083;SDS011;41958;52.416;13.428;2022-11-20T15:09:21;15.73;;;7.55;;
56083;SDS011;41958;52.416;13.428;2022-11-20T15:11:53;15.52;;;7.68;;
56083;SDS011;41958;52.416;13.428;2022-11-20T15:14:21;16.13;;;8.15;;
56083;SDS011;41958;52.416;13.428;2022-11-20T15:16:46;16.92;;;8.13;;
56083;SDS011;41958;52.416;13.428;2022-11-20T15:19:21;15.48;;;8.30;;
56083;SDS011;41958;52.416;13.428;2022-11-20T15:21:48;18.98;;;9.02;;
56083;SDS011;41958;52.416;13.428;2022-11-20T15:24:14;16.88;;;8.32;;
56083;SDS011;41958;52.416;13.428;2022-11-20T15:26:39;16.05;;;7.82;;
56083;SDS011;41958;52.416;13.428;2022-11-20T15:29:05;18.88;;;8.90;;
56083;SDS011;41958;52.416;13.428;2022-11-20T15:31:34;18.55;;;9.10;;
56083;SDS011;41958;52.416;13.428;2022-11-20T15:33:59;16.77;;;9.13;;